Waynesville, Ohio
Current Conditions -  °F | °C
As of 3:53 AM on Sunday 26 Oct 2014 (Local Time) from KMGY Reporting Station
Clear Clear  
Wind Chill: 11°   Ceiling: Unl
Heat Index: 11°   Visibility: 10mi
Dew Point:   Wind: 5mph
Humidity: 54%   Direction: 300°WNW
Pressure: 29.95"   Gusts: NA
Location:  39.53°N, 84.09°W
Report Text: KMGY 260753Z AUTO 30004KT 10SM CLR 11/02 A2995 RMK AO2 SLP137 T01110022
Loading
Personal Weather Stations






























Interactive Weather Map
Tropical Storm Tracking
New forecast layout! Learn more

10-Day Weather Forecast

Advertisements
Track Severe Weather on mobile